Time;durP1;ratioP1;P1;durP2;ratioP2;P2;SDS_P1;SDS_P2;PMS_P1;PMS_P2;Temp;Humidity;BMP_temperature;BMP_pressure;BME280_temperature;BME280_humidity;BME280_pressure;Samples;Min_cycle;Max_cycle;Signal;HPM_P1;HPM_P2
2023/10/07 00:01:16;;;;;;;13.88;3.85;;;13.80;99.90;;;;;;5058456;28;20041;-61
2023/10/07 00:03:44;;;;;;;8.70;2.42;;;13.70;99.90;;;;;;5056295;28;20080;-63
2023/10/07 00:06:11;;;;;;;13.93;3.88;;;13.70;99.90;;;;;;5055675;28;20063;-62
2023/10/07 00:08:38;;;;;;;8.38;2.40;;;13.70;99.90;;;;;;5052524;28;20037;-61
2023/10/07 00:11:11;;;;;;;8.80;1.85;;;13.70;99.90;;;;;;5052739;28;20098;-66
2023/10/07 00:13:42;;;;;;;13.07;1.95;;;13.80;99.90;;;;;;5055848;28;20483;-62
2023/10/07 00:16:11;;;;;;;;;;;13.70;99.90;;;;;;5053557;28;20060;-60
2023/10/07 00:18:38;;;;;;;9.80;2.75;;;13.80;99.90;;;;;;5058485;28;19920;-62
2023/10/07 00:21:07;;;;;;;8.43;2.05;;;13.70;99.90;;;;;;5059144;28;20483;-69
2023/10/07 00:23:35;;;;;;;14.10;3.45;;;13.70;99.90;;;;;;5067011;28;20051;-61
2023/10/07 00:26:07;;;;;;;16.70;3.80;;;13.70;99.90;;;;;;5058878;28;20056;-65
2023/10/07 00:28:38;;;;;;;10.32;2.65;;;13.70;99.90;;;;;;5065464;28;20051;-61
2023/10/07 00:31:22;;;;;;;7.90;2.20;;;13.70;99.90;;;;;;5062810;28;20056;-64
2023/10/07 00:33:52;;;;;;;8.13;3.20;;;13.60;99.90;;;;;;5060987;28;20044;-61
2023/10/07 00:36:41;;;;;;;15.07;3.40;;;13.60;99.90;;;;;;5058517;28;20037;-62
2023/10/07 00:39:09;;;;;;;7.10;2.72;;;13.60;99.90;;;;;;5069197;28;20502;-61
2023/10/07 00:41:45;;;;;;;6.47;3.10;;;13.60;99.90;;;;;;5078650;28;20376;-66
2023/10/07 00:44:17;;;;;;;5.57;2.10;;;13.60;99.90;;;;;;5059783;28;20451;-61
2023/10/07 00:46:54;;;;;;;8.07;1.67;;;13.60;99.90;;;;;;5062218;28;20175;-61
2023/10/07 00:49:22;;;;;;;5.22;2.35;;;13.60;99.90;;;;;;5063236;28;20043;-62
2023/10/07 00:51:52;;;;;;;9.32;2.83;;;13.60;99.90;;;;;;5063775;28;20140;-62
2023/10/07 00:59:40;;;;;;;6.07;1.90;;;13.60;99.90;;;;;;5061262;28;20033;-63
2023/10/07 01:02:15;;;;;;;13.32;2.50;;;13.50;99.90;;;;;;5058824;28;20039;-61
2023/10/07 01:04:42;;;;;;;16.17;2.30;;;13.50;99.90;;;;;;5054646;28;20063;-65
2023/10/07 01:07:19;;;;;;;6.70;1.85;;;13.50;99.90;;;;;;5059547;28;20024;-61
2023/10/07 01:10:14;;;;;;;12.65;2.83;;;13.50;99.90;;;;;;5040465;28;20068;-68
2023/10/07 01:12:44;;;;;;;14.00;3.30;;;13.40;99.90;;;;;;5061258;28;20196;-62
2023/10/07 01:15:25;;;;;;;14.30;2.70;;;13.40;99.90;;;;;;5060001;28;20126;-66
2023/10/07 01:17:56;;;;;;;6.47;1.73;;;13.40;99.90;;;;;;5064752;28;20357;-61
2023/10/07 01:23:16;;;;;;;5.38;2.08;;;13.40;99.90;;;;;;5061567;28;20091;-63
2023/10/07 01:25:44;;;;;;;6.15;1.80;;;13.40;99.90;;;;;;5063622;28;20037;-62
2023/10/07 01:28:14;;;;;;;10.40;3.10;;;13.40;99.90;;;;;;5061892;28;20095;-60
2023/10/07 01:30:56;;;;;;;;;;;13.40;99.90;;;;;;5062128;28;20060;-61
2023/10/07 01:33:34;;;;;;;3.53;1.17;;;13.40;99.90;;;;;;5061871;28;20500;-61
2023/10/07 01:36:16;;;;;;;4.43;1.52;;;13.40;99.90;;;;;;5061997;28;20052;-63
2023/10/07 01:38:52;;;;;;;5.35;2.10;;;13.40;99.90;;;;;;5060153;28;20072;-61
2023/10/07 01:41:20;;;;;;;6.40;2.38;;;13.50;99.90;;;;;;5059596;28;20116;-60
2023/10/07 01:43:59;;;;;;;6.90;1.73;;;13.50;99.90;;;;;;5053595;28;20095;-62
2023/10/07 01:46:27;;;;;;;5.43;1.92;;;13.50;99.90;;;;;;5059504;28;20047;-60
2023/10/07 01:49:04;;;;;;;10.82;2.20;;;13.50;99.90;;;;;;5060870;28;20475;-61
2023/10/07 01:51:31;;;;;;;9.77;3.22;;;13.50;99.90;;;;;;5059709;28;20040;-63
2023/10/07 01:54:03;;;;;;;7.95;2.45;;;13.40;99.90;;;;;;5059697;28;20056;-64
2023/10/07 01:56:31;;;;;;;11.60;2.53;;;13.40;99.90;;;;;;5055310;28;20037;-61
2023/10/07 01:59:17;;;;;;;7.00;2.70;;;13.50;99.90;;;;;;5036291;28;20140;-62
2023/10/07 02:02:05;;;;;;;3.85;1.30;;;13.50;99.90;;;;;;5042168;28;20445;-60
2023/10/07 02:04:33;;;;;;;6.20;2.05;;;13.40;99.90;;;;;;5059326;28;20505;-60
2023/10/07 02:07:00;;;;;;;12.50;2.75;;;13.40;99.90;;;;;;5056588;28;20378;-63
2023/10/07 02:09:28;;;;;;;15.77;2.70;;;13.40;99.90;;;;;;5060406;28;20387;-62
2023/10/07 02:11:57;;;;;;;11.90;2.08;;;13.40;99.90;;;;;;5051643;28;20106;-64
2023/10/07 02:14:25;;;;;;;5.88;1.77;;;13.40;99.90;;;;;;5048756;28;20084;-60
2023/10/07 02:16:53;;;;;;;10.80;3.45;;;13.40;99.90;;;;;;5060744;28;20122;-61
2023/10/07 02:19:29;;;;;;;7.05;1.25;;;13.30;99.90;;;;;;5058741;28;20036;-62
2023/10/07 02:22:03;;;;;;;13.43;3.67;;;13.30;99.90;;;;;;5040963;28;20060;-61
2023/10/07 02:24:31;;;;;;;11.18;2.78;;;13.30;99.90;;;;;;5047228;28;20379;-62
2023/10/07 02:27:28;;;;;;;7.60;3.08;;;13.00;99.90;;;;;;5038082;28;20078;-64
2023/10/07 02:29:57;;;;;;;6.85;1.58;;;12.70;99.90;;;;;;5038056;28;20722;-63
2023/10/07 02:32:24;;;;;;;8.73;1.90;;;12.20;99.90;;;;;;5055284;28;20498;-62
2023/10/07 02:34:51;;;;;;;9.93;1.33;;;12.00;99.90;;;;;;5062437;28;20044;-62
2023/10/07 02:37:21;;;;;;;6.45;1.67;;;11.80;99.90;;;;;;5053996;28;20132;-63
2023/10/07 02:39:50;;;;;;;6.18;1.25;;;11.70;99.90;;;;;;5040438;28;20142;-62
2023/10/07 02:42:28;;;;;;;;;;;11.70;99.90;;;;;;5043870;28;20449;-63
2023/10/07 02:47:47;;;;;;;6.63;0.60;;;11.60;99.90;;;;;;5052679;28;20043;-66
2023/10/07 02:50:16;;;;;;;5.25;1.27;;;11.50;99.90;;;;;;5060494;28;20462;-62
2023/10/07 02:52:46;;;;;;;6.43;1.55;;;11.40;99.90;;;;;;5055422;28;20095;-64
2023/10/07 02:57:55;;;;;;;1.13;0.75;;;11.20;99.90;;;;;;5060343;28;20098;-63
2023/10/07 03:00:29;;;;;;;1.90;0.77;;;11.10;99.90;;;;;;5057804;28;20413;-63
2023/10/07 03:03:19;;;;;;;4.20;0.50;;;10.80;99.90;;;;;;5053961;28;20199;-61
2023/10/07 03:05:57;;;;;;;1.98;0.45;;;10.70;99.90;;;;;;5055933;28;20129;-63
2023/10/07 03:08:40;;;;;;;2.50;0.85;;;10.50;99.90;;;;;;5055424;28;20044;-64
2023/10/07 03:11:11;;;;;;;1.10;0.30;;;10.30;99.90;;;;;;5060142;28;20037;-62
2023/10/07 03:13:45;;;;;;;1.67;0.50;;;10.30;99.90;;;;;;5056605;28;20593;-61
2023/10/07 03:22:09;;;;;;;5.25;0.85;;;10.10;99.90;;;;;;5057742;28;20406;-61
2023/10/07 03:24:41;;;;;;;2.08;0.45;;;10.10;99.90;;;;;;5052933;28;20045;-62
2023/10/07 03:27:11;;;;;;;3.83;0.22;;;10.10;99.90;;;;;;5054955;28;20275;-63
2023/10/07 03:29:45;;;;;;;2.72;0.30;;;10.10;99.90;;;;;;5058455;28;20048;-62
2023/10/07 03:32:12;;;;;;;1.00;0.30;;;10.00;99.90;;;;;;5059844;28;20118;-62
2023/10/07 03:34:45;;;;;;;2.00;0.30;;;10.00;99.90;;;;;;5062869;28;20056;-61
2023/10/07 03:39:57;;;;;;;4.13;0.50;;;9.90;99.90;;;;;;5059141;28;20040;-62
2023/10/07 03:42:24;;;;;;;1.30;0.75;;;10.00;99.90;;;;;;5057247;28;20564;-62
2023/10/07 03:44:51;;;;;;;1.17;0.40;;;10.00;99.90;;;;;;5053449;28;20037;-62
2023/10/07 03:47:18;;;;;;;0.30;0.30;;;10.00;99.90;;;;;;5053554;28;20060;-60
2023/10/07 03:49:52;;;;;;;0.32;0.20;;;10.00;99.90;;;;;;5059102;28;20047;-62
2023/10/07 03:52:21;;;;;;;4.00;1.02;;;10.00;99.90;;;;;;5057385;28;20033;-61
2023/10/07 03:54:48;;;;;;;0.40;0.10;;;10.00;99.90;;;;;;5054304;28;20040;-61
2023/10/07 03:57:15;;;;;;;4.95;1.38;;;9.90;99.90;;;;;;5052618;28;20029;-61
2023/10/07 03:59:42;;;;;;;1.83;0.35;;;9.80;99.90;;;;;;5056253;28;20036;-61
2023/10/07 04:05:31;;;;;;;5.60;0.63;;;9.60;99.90;;;;;;5054460;28;20041;-67
2023/10/07 04:07:43;;;;;;;3.22;0.60;;;9.60;99.90;;;;;;5057285;28;20045;-61
2023/10/07 04:10:31;;;;;;;1.52;0.28;;;9.50;99.90;;;;;;5056870;28;20550;-65
2023/10/07 04:12:58;;;;;;;0.82;0.45;;;9.40;99.90;;;;;;5051183;28;20044;-68
2023/10/07 04:15:29;;;;;;;1.88;0.70;;;9.30;99.90;;;;;;5051064;28;20037;-61
2023/10/07 04:17:57;;;;;;;2.17;0.28;;;9.20;99.90;;;;;;5053392;28;20040;-62
2023/10/07 04:20:25;;;;;;;3.08;1.25;;;9.20;99.90;;;;;;5053467;28;20390;-61
2023/10/07 04:23:00;;;;;;;0.38;0.25;;;9.10;99.90;;;;;;5054344;28;20374;-61
2023/10/07 04:25:29;;;;;;;1.88;0.30;;;9.10;99.90;;;;;;5037438;28;20041;-62
2023/10/07 04:27:57;;;;;;;0.77;0.38;;;9.10;99.90;;;;;;5057407;28;20155;-61
2023/10/07 04:30:28;;;;;;;0.28;0.28;;;9.10;99.90;;;;;;5052747;28;20135;-62
2023/10/07 04:33:01;;;;;;;1.67;0.47;;;9.00;99.90;;;;;;5054383;28;20500;-64
2023/10/07 04:35:32;;;;;;;5.53;1.02;;;9.00;99.90;;;;;;5057490;28;20033;-61
2023/10/07 04:38:09;;;;;;;1.73;0.70;;;9.00;99.90;;;;;;5058889;28;20048;-65
2023/10/07 04:43:25;;;;;;;3.22;0.47;;;9.00;99.90;;;;;;5053277;28;20041;-65
2023/10/07 04:45:53;;;;;;;5.00;0.60;;;9.00;99.90;;;;;;5056709;28;20049;-63
2023/10/07 04:48:24;;;;;;;6.47;1.55;;;8.90;99.90;;;;;;5055312;28;20166;-63
2023/10/07 04:51:07;;;;;;;2.05;0.40;;;9.00;99.90;;;;;;5055838;28;20131;-63
2023/10/07 04:53:40;;;;;;;3.03;0.95;;;9.00;99.90;;;;;;5057185;28;20106;-64
2023/10/07 04:56:10;;;;;;;0.80;0.40;;;8.80;99.90;;;;;;5056956;28;20043;-65
2023/10/07 04:58:40;;;;;;;2.35;1.13;;;8.80;99.90;;;;;;5058001;28;20035;-62
2023/10/07 05:04:10;;;;;;;2.40;0.40;;;8.70;99.90;;;;;;5003519;28;20049;-65
2023/10/07 05:06:38;;;;;;;1.63;1.33;;;8.60;99.90;;;;;;5046344;28;20056;-64
2023/10/07 05:09:09;;;;;;;1.73;0.30;;;8.60;99.90;;;;;;5054235;28;20044;-63
2023/10/07 05:11:43;;;;;;;2.45;0.32;;;8.70;99.90;;;;;;5062407;28;20044;-64
2023/10/07 05:14:10;;;;;;;0.85;0.32;;;8.60;99.90;;;;;;5061296;28;20776;-63
2023/10/07 05:16:38;;;;;;;2.35;0.32;;;8.50;99.90;;;;;;5059463;28;20135;-61
2023/10/07 05:19:09;;;;;;;1.83;0.30;;;8.50;99.90;;;;;;5057143;28;20529;-67
2023/10/07 05:21:39;;;;;;;2.75;0.85;;;8.50;99.90;;;;;;5059551;28;20044;-64
2023/10/07 05:24:09;;;;;;;1.65;0.32;;;8.50;99.90;;;;;;5059539;28;20047;-61
2023/10/07 05:26:40;;;;;;;0.65;0.40;;;8.50;99.90;;;;;;5058517;28;20385;-67
2023/10/07 05:29:12;;;;;;;1.70;0.45;;;8.50;99.90;;;;;;5059079;28;20481;-62
2023/10/07 05:31:40;;;;;;;2.03;0.70;;;8.50;99.90;;;;;;5058862;28;20114;-62
2023/10/07 05:34:08;;;;;;;3.40;0.50;;;8.50;99.90;;;;;;5059538;28;20090;-61
2023/10/07 05:36:37;;;;;;;0.85;0.40;;;8.40;99.90;;;;;;5058883;28;20446;-63
2023/10/07 05:39:08;;;;;;;3.25;0.77;;;8.40;99.90;;;;;;5057793;28;20056;-65
2023/10/07 05:41:39;;;;;;;1.17;0.60;;;8.40;99.90;;;;;;5076467;28;20431;-62
2023/10/07 05:44:07;;;;;;;1.80;1.17;;;8.40;99.90;;;;;;5055893;28;20043;-62
2023/10/07 05:46:35;;;;;;;3.28;0.70;;;8.40;99.90;;;;;;5058719;28;20041;-63
2023/10/07 05:49:02;;;;;;;2.03;0.65;;;8.40;99.90;;;;;;5057216;28;20051;-63
2023/10/07 05:51:29;;;;;;;2.00;0.50;;;8.30;99.90;;;;;;5059843;28;20106;-62
2023/10/07 05:53:56;;;;;;;4.07;0.73;;;8.20;99.90;;;;;;5056928;28;20099;-63
2023/10/07 05:56:22;;;;;;;4.00;0.30;;;8.20;99.90;;;;;;5059135;28;20114;-60
2023/10/07 05:58:51;;;;;;;1.30;0.80;;;8.20;99.90;;;;;;5059826;28;20032;-60
2023/10/07 06:01:18;;;;;;;2.38;0.73;;;8.20;99.90;;;;;;5056560;28;20052;-61
2023/10/07 06:03:46;;;;;;;0.30;0.20;;;8.20;99.90;;;;;;5053557;28;20043;-63
2023/10/07 06:06:14;;;;;;;7.45;1.17;;;8.20;99.90;;;;;;5060325;28;20336;-64
2023/10/07 06:08:41;;;;;;;4.25;0.90;;;8.20;99.90;;;;;;5056518;28;20029;-62
2023/10/07 06:11:11;;;;;;;3.90;0.70;;;8.20;99.90;;;;;;5055889;28;20036;-63
2023/10/07 06:13:40;;;;;;;3.30;0.60;;;8.20;99.90;;;;;;5051072;28;20049;-61
2023/10/07 06:16:08;;;;;;;1.02;0.40;;;8.10;99.90;;;;;;5058245;28;20055;-63
2023/10/07 06:18:35;;;;;;;0.40;0.20;;;8.20;99.90;;;;;;5056723;28;20044;-61
2023/10/07 06:21:50;;;;;;;1.23;0.63;;;8.10;99.90;;;;;;5040834;28;20367;-66
2023/10/07 06:23:49;;;;;;;1.10;0.20;;;8.10;99.90;;;;;;5041350;28;20413;-61
2023/10/07 06:26:16;;;;;;;2.35;0.63;;;8.10;99.90;;;;;;5056733;28;20425;-68
2023/10/07 06:28:48;;;;;;;4.00;1.30;;;8.20;99.90;;;;;;5056526;28;20032;-61
2023/10/07 06:31:22;;;;;;;2.08;0.38;;;8.20;99.90;;;;;;5058341;28;20116;-60
2023/10/07 06:34:00;;;;;;;1.65;0.98;;;8.20;99.90;;;;;;5055426;28;20106;-61
2023/10/07 06:36:31;;;;;;;3.67;0.55;;;8.20;99.90;;;;;;5059927;28;20033;-61
2023/10/07 06:38:59;;;;;;;5.25;2.70;;;8.20;99.90;;;;;;5059296;28;20437;-62
2023/10/07 06:41:28;;;;;;;2.15;0.40;;;8.20;99.90;;;;;;5056198;28;20064;-60
2023/10/07 06:43:59;;;;;;;9.47;1.27;;;8.30;99.90;;;;;;5053430;28;20052;-61
2023/10/07 06:46:31;;;;;;;1.88;0.43;;;8.20;99.90;;;;;;5054448;28;20608;-67
2023/10/07 06:49:03;;;;;;;5.13;1.30;;;8.20;99.90;;;;;;5054902;28;20416;-61
2023/10/07 06:51:30;;;;;;;1.38;0.50;;;8.30;99.90;;;;;;5059778;28;20120;-63
2023/10/07 06:54:01;;;;;;;5.25;0.65;;;8.30;99.90;;;;;;5052486;28;20072;-64
2023/10/07 06:56:28;;;;;;;2.67;1.45;;;8.30;99.90;;;;;;5057069;28;20068;-63
2023/10/07 06:58:59;;;;;;;1.50;0.40;;;8.20;99.90;;;;;;5059155;28;20071;-61
2023/10/07 07:01:51;;;;;;;2.22;0.63;;;8.20;99.90;;;;;;5056492;28;20546;-62
2023/10/07 07:04:19;;;;;;;2.50;0.38;;;8.20;99.90;;;;;;5054758;28;20127;-66
2023/10/07 07:06:57;;;;;;;2.90;0.50;;;8.20;99.90;;;;;;5054451;28;20115;-66
2023/10/07 07:12:16;;;;;;;1.40;0.50;;;8.10;99.90;;;;;;5060423;28;20116;-62
2023/10/07 07:14:50;;;;;;;3.40;0.63;;;8.10;99.90;;;;;;5059932;28;20040;-61
2023/10/07 07:22:45;;;;;;;1.30;0.40;;;8.20;99.90;;;;;;5055625;28;20122;-61
2023/10/07 07:25:23;;;;;;;1.55;0.60;;;8.20;99.90;;;;;;5055132;28;20424;-61
2023/10/07 07:27:52;;;;;;;4.13;0.65;;;8.10;99.90;;;;;;5057740;28;20033;-61
2023/10/07 07:30:29;;;;;;;3.13;0.83;;;8.20;99.90;;;;;;5058566;28;20064;-61
2023/10/07 07:33:07;;;;;;;2.25;1.20;;;8.10;99.90;;;;;;5056568;28;20568;-61
2023/10/07 07:35:45;;;;;;;2.78;0.98;;;8.20;99.90;;;;;;5058039;28;20041;-61
2023/10/07 07:38:43;;;;;;;6.18;0.95;;;8.20;99.90;;;;;;5062783;28;20028;-60
2023/10/07 07:41:26;;;;;;;5.40;0.60;;;8.10;99.90;;;;;;5054776;28;21703;-60
2023/10/07 07:43:58;;;;;;;2.40;0.55;;;8.10;99.90;;;;;;5057493;28;20062;-70
2023/10/07 07:46:26;;;;;;;2.40;0.52;;;8.00;99.90;;;;;;5055474;28;20060;-61
2023/10/07 07:48:54;;;;;;;2.97;1.00;;;8.10;99.90;;;;;;5059053;28;20044;-61
2023/10/07 07:51:25;;;;;;;2.00;0.63;;;8.10;99.90;;;;;;5054761;28;20087;-60
2023/10/07 07:53:52;;;;;;;1.75;0.40;;;8.00;99.90;;;;;;5054525;28;20056;-70
2023/10/07 07:56:20;;;;;;;1.60;0.88;;;7.90;99.90;;;;;;5058226;28;20045;-62
2023/10/07 07:58:52;;;;;;;0.93;0.40;;;7.70;99.90;;;;;;5053146;28;20041;-61
2023/10/07 08:01:22;;;;;;;5.43;1.27;;;7.60;99.90;;;;;;5056003;28;20067;-63
2023/10/07 08:03:49;;;;;;;2.80;0.60;;;7.60;99.90;;;;;;5058337;28;20136;-65
2023/10/07 08:06:20;;;;;;;3.00;0.50;;;7.50;99.90;;;;;;5058530;28;20362;-60
2023/10/07 08:08:50;;;;;;;5.38;0.60;;;7.50;99.90;;;;;;5053762;28;20067;-62
2023/10/07 08:11:17;;;;;;;2.10;1.08;;;7.50;99.90;;;;;;5055530;28;20036;-61
2023/10/07 08:13:46;;;;;;;6.45;0.77;;;7.50;99.90;;;;;;5054407;28;20371;-61
2023/10/07 08:16:18;;;;;;;2.83;0.52;;;7.50;99.90;;;;;;5058553;28;20120;-63
2023/10/07 08:18:50;;;;;;;3.22;0.63;;;7.50;99.90;;;;;;5055758;28;20102;-61
2023/10/07 08:21:17;;;;;;;5.85;1.15;;;7.50;99.90;;;;;;5055942;28;20426;-60
2023/10/07 08:23:45;;;;;;;5.97;1.00;;;7.60;99.90;;;;;;5055708;28;20041;-63
2023/10/07 08:26:20;;;;;;;1.23;0.93;;;7.60;99.90;;;;;;5055511;28;20332;-63
2023/10/07 08:28:59;;;;;;;1.67;0.55;;;7.60;99.90;;;;;;5052533;28;20037;-66
2023/10/07 08:31:44;;;;;;;2.05;0.40;;;7.60;99.90;;;;;;5054431;28;20029;-62
2023/10/07 08:34:11;;;;;;;2.22;0.77;;;7.60;99.90;;;;;;5056932;28;20047;-60
2023/10/07 08:36:43;;;;;;;3.85;0.63;;;7.60;99.90;;;;;;5056687;28;20036;-60
2023/10/07 08:39:11;;;;;;;2.33;0.98;;;7.60;99.90;;;;;;5054479;28;20036;-60
2023/10/07 08:41:47;;;;;;;2.10;0.57;;;7.70;99.90;;;;;;5058547;28;20056;-62
2023/10/07 08:44:15;;;;;;;2.58;0.68;;;7.60;99.90;;;;;;5053401;28;20135;-63
2023/10/07 08:46:52;;;;;;;1.83;0.60;;;7.60;99.90;;;;;;5061290;28;20065;-62
2023/10/07 08:49:26;;;;;;;3.30;1.35;;;7.60;99.90;;;;;;5058740;28;20037;-61
2023/10/07 08:51:55;;;;;;;2.28;0.88;;;7.60;99.90;;;;;;5061853;28;20036;-61
2023/10/07 08:54:26;;;;;;;1.85;0.98;;;7.60;99.90;;;;;;5059393;28;20550;-62
2023/10/07 08:56:59;;;;;;;4.30;1.08;;;7.70;99.90;;;;;;5058866;28;20072;-61
2023/10/07 08:59:33;;;;;;;3.58;0.70;;;7.70;99.90;;;;;;5058955;28;20040;-63
2023/10/07 09:02:00;;;;;;;6.70;0.90;;;7.70;99.90;;;;;;5062640;28;20063;-62
2023/10/07 09:04:33;;;;;;;2.60;0.73;;;7.70;99.90;;;;;;5058411;28;20056;-60
2023/10/07 09:07:08;;;;;;;2.33;0.90;;;7.70;99.90;;;;;;5065095;28;20040;-60
2023/10/07 09:09:43;;;;;;;2.28;0.73;;;7.80;99.90;;;;;;5056852;28;20429;-60
2023/10/07 09:12:14;;;;;;;2.90;1.52;;;7.80;99.90;;;;;;5058902;28;20094;-63
2023/10/07 09:14:52;;;;;;;1.70;0.82;;;7.90;99.90;;;;;;5060759;28;20134;-61
2023/10/07 09:17:23;;;;;;;5.05;0.85;;;7.80;99.90;;;;;;5059634;28;20490;-64
2023/10/07 09:19:58;;;;;;;3.72;0.80;;;7.90;99.90;;;;;;5057377;28;20044;-66
2023/10/07 09:22:34;;;;;;;3.60;1.05;;;7.90;99.90;;;;;;5059222;28;20057;-60
2023/10/07 09:25:17;;;;;;;3.35;1.67;;;7.80;99.90;;;;;;5058251;28;20106;-62
2023/10/07 09:27:54;;;;;;;2.53;1.02;;;7.90;99.90;;;;;;5062856;28;20467;-60
2023/10/07 09:30:37;;;;;;;3.80;0.93;;;7.90;99.90;;;;;;5060585;28;20530;-61
2023/10/07 09:33:12;;;;;;;4.90;0.90;;;7.90;99.90;;;;;;5060437;28;20139;-63
2023/10/07 09:35:44;;;;;;;2.47;1.00;;;8.00;99.90;;;;;;5062831;28;20056;-63
2023/10/07 09:38:24;;;;;;;3.47;1.13;;;8.00;99.90;;;;;;5062946;28;20044;-60
2023/10/07 09:43:29;;;;;;;2.72;0.52;;;8.00;99.90;;;;;;5059459;28;20446;-60
2023/10/07 09:45:58;;;;;;;2.72;1.00;;;8.10;99.90;;;;;;5056679;28;20115;-67
2023/10/07 09:48:33;;;;;;;2.97;0.68;;;8.20;99.90;;;;;;5059045;28;20498;-64
2023/10/07 09:51:02;;;;;;;2.30;0.90;;;8.20;99.90;;;;;;5060743;28;20413;-60
2023/10/07 09:53:51;;;;;;;1.33;0.60;;;8.20;99.90;;;;;;5057765;28;20126;-59
2023/10/07 09:56:29;;;;;;;1.15;0.60;;;8.40;99.90;;;;;;5058318;28;20036;-58
2023/10/07 09:59:15;;;;;;;6.82;1.45;;;8.30;99.90;;;;;;5057187;28;20040;-66
2023/10/07 10:01:58;;;;;;;3.78;2.15;;;8.30;99.90;;;;;;5062850;28;20374;-61
2023/10/07 10:04:54;;;;;;;2.65;0.98;;;8.40;99.90;;;;;;5059566;28;20057;-63
2023/10/07 10:08:06;;;;;;;1.45;0.82;;;8.50;99.90;;;;;;5057629;28;20065;-63
2023/10/07 10:10:32;;;;;;;5.10;0.88;;;8.60;99.90;;;;;;5059991;28;20116;-64
2023/10/07 10:18:35;;;;;;;2.03;1.00;;;8.60;99.90;;;;;;5054039;28;20052;-60
2023/10/07 10:21:09;;;;;;;2.58;0.82;;;8.70;99.90;;;;;;5056212;28;20043;-64
2023/10/07 10:23:39;;;;;;;1.15;0.57;;;8.60;99.90;;;;;;5054622;28;20059;-60
2023/10/07 10:26:21;;;;;;;4.05;1.20;;;8.60;99.90;;;;;;5055339;28;20051;-62
2023/10/07 10:29:03;;;;;;;4.22;1.20;;;8.60;99.90;;;;;;5053478;28;20040;-63
2023/10/07 10:31:32;;;;;;;3.53;1.00;;;8.60;99.90;;;;;;5054118;28;20041;-60
2023/10/07 10:34:08;;;;;;;8.43;1.50;;;8.60;99.90;;;;;;5057141;28;20417;-63
2023/10/07 10:36:43;;;;;;;2.13;1.17;;;8.60;99.90;;;;;;5056571;28;21245;-62
2023/10/07 10:39:18;;;;;;;1.20;0.82;;;8.60;99.90;;;;;;5055600;28;20040;-60
2023/10/07 10:42:09;;;;;;;1.05;0.80;;;8.70;99.90;;;;;;5059093;28;20047;-61
2023/10/07 10:44:38;;;;;;;8.82;0.93;;;8.70;99.90;;;;;;5055840;28;20048;-63
2023/10/07 10:47:07;;;;;;;3.25;1.33;;;8.60;99.90;;;;;;5057166;28;20109;-65
2023/10/07 10:49:35;;;;;;;2.60;1.02;;;8.60;99.90;;;;;;5059983;28;20037;-59
2023/10/07 10:52:02;;;;;;;4.20;1.80;;;8.60;99.90;;;;;;5058181;28;20040;-60
2023/10/07 10:54:30;;;;;;;6.25;1.10;;;8.70;99.90;;;;;;5055872;28;20052;-61
2023/10/07 10:56:58;;;;;;;1.60;0.73;;;8.70;99.90;;;;;;5054625;28;20106;-65
2023/10/07 10:59:42;;;;;;;2.42;0.60;;;8.70;99.90;;;;;;5053202;28;20033;-60
2023/10/07 11:02:17;;;;;;;3.50;1.15;;;8.70;99.90;;;;;;5056024;28;20041;-59
2023/10/07 11:04:46;;;;;;;2.78;0.47;;;8.80;99.90;;;;;;5055404;28;20160;-63
2023/10/07 11:07:14;;;;;;;3.40;1.05;;;8.80;99.90;;;;;;5052858;28;20068;-61
2023/10/07 11:09:48;;;;;;;2.47;2.28;;;8.80;99.90;;;;;;5058594;28;20110;-61
2023/10/07 11:12:18;;;;;;;2.85;1.08;;;8.80;99.90;;;;;;5056259;28;20041;-59
2023/10/07 11:14:48;;;;;;;1.98;1.23;;;8.80;99.90;;;;;;5057137;28;20438;-60
2023/10/07 11:17:16;;;;;;;3.55;0.65;;;8.80;99.90;;;;;;5057317;28;20549;-61
2023/10/07 11:19:44;;;;;;;0.80;0.50;;;8.80;99.90;;;;;;5056028;28;20056;-59
2023/10/07 11:22:19;;;;;;;1.00;0.65;;;8.80;99.90;;;;;;5053288;28;20072;-60
2023/10/07 11:24:50;;;;;;;2.10;0.75;;;8.80;99.90;;;;;;5054333;28;20049;-61
2023/10/07 11:27:26;;;;;;;5.72;1.63;;;8.80;99.90;;;;;;5056630;28;20473;-62
2023/10/07 11:29:57;;;;;;;1.35;0.75;;;8.90;99.90;;;;;;5059915;28;20127;-60
2023/10/07 11:32:33;;;;;;;1.65;0.55;;;8.90;99.90;;;;;;5056244;28;20540;-59
2023/10/07 11:35:01;;;;;;;3.70;1.48;;;8.90;99.90;;;;;;5057414;28;20040;-65
2023/10/07 11:37:28;;;;;;;3.50;1.15;;;8.90;99.90;;;;;;5054944;28;20044;-63
2023/10/07 11:39:55;;;;;;;2.25;0.95;;;8.90;99.90;;;;;;5057477;28;20421;-63
2023/10/07 11:42:23;;;;;;;9.40;1.27;;;8.90;99.90;;;;;;5055905;28;20072;-59
2023/10/07 11:44:55;;;;;;;2.45;1.00;;;8.80;99.90;;;;;;5054790;28;20048;-60
2023/10/07 11:47:24;;;;;;;3.97;1.40;;;8.90;99.90;;;;;;5055256;28;20075;-61
2023/10/07 11:49:52;;;;;;;0.68;0.57;;;8.90;99.90;;;;;;5055532;28;20475;-61
2023/10/07 11:52:19;;;;;;;3.45;0.50;;;8.90;99.90;;;;;;5056302;28;20284;-59
2023/10/07 11:54:48;;;;;;;3.05;0.70;;;8.90;99.90;;;;;;5056506;28;20163;-62
2023/10/07 11:57:18;;;;;;;3.67;0.40;;;9.00;99.90;;;;;;5057052;28;20552;-61
2023/10/07 11:59:45;;;;;;;;;;;9.00;99.90;;;;;;5055654;28;20433;-61
2023/10/07 12:02:14;;;;;;;0.98;0.50;;;9.00;99.90;;;;;;5058756;28;19916;-59
2023/10/07 12:04:47;;;;;;;1.23;0.90;;;9.00;99.90;;;;;;5052474;28;20064;-61
2023/10/07 12:07:16;;;;;;;2.42;0.77;;;9.10;99.90;;;;;;5054742;28;20048;-60
2023/10/07 12:09:46;;;;;;;2.00;0.75;;;9.10;99.90;;;;;;5053552;28;20118;-61
2023/10/07 12:12:15;;;;;;;1.65;0.52;;;9.00;99.90;;;;;;5068775;28;20041;-62
2023/10/07 12:14:42;;;;;;;3.20;0.88;;;9.00;99.90;;;;;;5055066;28;20128;-60
2023/10/07 12:17:09;;;;;;;1.90;0.77;;;9.00;99.90;;;;;;5048807;28;20049;-63
2023/10/07 12:19:36;;;;;;;1.98;0.80;;;9.00;99.90;;;;;;5053370;28;20040;-59
2023/10/07 12:22:06;;;;;;;1.23;0.90;;;9.10;99.90;;;;;;5054634;28;20564;-59
2023/10/07 12:24:34;;;;;;;1.15;0.60;;;9.10;99.90;;;;;;5057113;28;20071;-59
2023/10/07 12:27:02;;;;;;;1.63;0.63;;;9.30;99.90;;;;;;5057170;28;20478;-62
2023/10/07 12:29:29;;;;;;;2.53;0.80;;;9.30;99.90;;;;;;5059651;28;20087;-61
2023/10/07 12:31:57;;;;;;;0.68;0.55;;;9.40;99.90;;;;;;5051802;28;20043;-66
2023/10/07 12:34:24;;;;;;;2.42;0.70;;;9.40;99.90;;;;;;5054908;28;20032;-59
2023/10/07 12:36:53;;;;;;;3.60;0.70;;;9.40;99.90;;;;;;5057064;28;20047;-59
2023/10/07 12:39:23;;;;;;;0.33;0.20;;;9.30;99.90;;;;;;5054588;28;20477;-60
2023/10/07 12:41:50;;;;;;;3.00;0.70;;;9.30;99.90;;;;;;5051755;28;20308;-60
2023/10/07 12:44:17;;;;;;;1.48;0.30;;;9.30;99.90;;;;;;5052603;28;20036;-60
2023/10/07 12:46:44;;;;;;;6.38;0.90;;;9.30;99.90;;;;;;5052217;28;20132;-65
2023/10/07 12:49:14;;;;;;;1.38;0.65;;;9.30;99.90;;;;;;5051154;28;20040;-63
2023/10/07 12:51:43;;;;;;;4.35;0.73;;;9.20;99.90;;;;;;5053638;28;20048;-63
2023/10/07 12:54:11;;;;;;;1.57;0.30;;;9.30;99.90;;;;;;5052816;28;20059;-60
2023/10/07 12:56:42;;;;;;;0.77;0.30;;;9.20;99.90;;;;;;5054082;28;20109;-60
2023/10/07 12:59:21;;;;;;;1.30;0.68;;;9.20;99.90;;;;;;5055889;28;20060;-61
2023/10/07 13:01:50;;;;;;;3.50;2.17;;;9.20;99.90;;;;;;5053299;28;20048;-63
2023/10/07 13:04:19;;;;;;;1.77;1.42;;;9.30;99.90;;;;;;5055543;28;20032;-62
2023/10/07 13:06:48;;;;;;;3.50;0.70;;;9.40;99.90;;;;;;5055393;28;20079;-62
2023/10/07 13:09:16;;;;;;;2.17;0.40;;;9.50;99.90;;;;;;5053729;28;20493;-59
2023/10/07 13:11:45;;;;;;;2.40;0.45;;;9.50;99.90;;;;;;5035329;28;20055;-60
2023/10/07 13:14:12;;;;;;;1.00;0.73;;;9.50;99.90;;;;;;5053351;28;20486;-59
2023/10/07 13:16:45;;;;;;;0.90;0.50;;;9.60;99.90;;;;;;5057005;28;20433;-60
2023/10/07 13:19:13;;;;;;;1.73;0.50;;;9.60;99.90;;;;;;5057003;28;20195;-59
2023/10/07 13:21:41;;;;;;;1.17;0.60;;;9.60;99.90;;;;;;5051745;28;20053;-59
2023/10/07 13:24:11;;;;;;;0.28;0.20;;;9.70;99.90;;;;;;5055212;28;20051;-60
2023/10/07 13:26:38;;;;;;;1.98;0.70;;;9.60;99.90;;;;;;5055084;28;20045;-61
2023/10/07 13:29:10;;;;;;;1.48;0.20;;;9.70;99.90;;;;;;5056389;28;20127;-69
2023/10/07 13:31:41;;;;;;;1.00;0.50;;;9.70;99.90;;;;;;5059488;28;20049;-59
2023/10/07 13:34:08;;;;;;;1.67;0.90;;;9.60;99.90;;;;;;5059356;28;20093;-58
2023/10/07 13:36:38;;;;;;;1.00;0.40;;;9.60;99.90;;;;;;5057968;28;20040;-59
2023/10/07 13:39:15;;;;;;;0.82;0.40;;;9.70;99.90;;;;;;5054531;28;20487;-59
2023/10/07 13:41:46;;;;;;;4.93;0.47;;;9.70;99.90;;;;;;5050587;28;20045;-60
2023/10/07 13:44:17;;;;;;;0.95;0.50;;;9.60;99.90;;;;;;5059616;28;20052;-66
2023/10/07 13:46:44;;;;;;;;;;;9.60;99.90;;;;;;5058945;28;20132;-60
2023/10/07 13:49:13;;;;;;;1.00;0.40;;;9.60;99.90;;;;;;5063410;28;19916;-61
2023/10/07 13:51:44;;;;;;;1.23;0.45;;;9.70;99.90;;;;;;5058421;28;20040;-60
2023/10/07 13:57:02;;;;;;;1.15;0.52;;;10.10;99.90;;;;;;5057088;28;20497;-59
2023/10/07 13:59:29;;;;;;;2.17;0.35;;;10.10;99.90;;;;;;5055998;28;20037;-59
2023/10/07 14:01:58;;;;;;;1.30;0.22;;;10.00;99.90;;;;;;5055071;28;20041;-61
2023/10/07 14:04:25;;;;;;;2.83;0.35;;;10.10;99.90;;;;;;5059068;28;20378;-60
2023/10/07 14:07:00;;;;;;;0.65;0.28;;;10.20;99.90;;;;;;5061618;28;20040;-59
2023/10/07 14:09:29;;;;;;;0.82;0.55;;;10.10;99.90;;;;;;5057394;28;20128;-59